Terminal Aerodrome Forecast
Issued by NWS

Home | Current Version | Previous Version | Text Only | Print | Product List | Glossary On
Versions: 1 2 3 4 5 6 7 8 9 10 11 12 13 14 15 16 17 18 19 20 21
000
FTUS41 KRNK 310540
TAFLWB
TAF
KLWB 310540Z 3106/0106 00000KT P6SM BKN040
     FM311600 22003KT P6SM OVC035
     FM311900 24004KT 6SM -RA SCT030 OVC050
     FM312200 26003KT 4SM -RA BR OVC019
     FM010100 00000KT 2SM -RA BR OVC008=

USA.gov is the U.S. government's official web portal to all federal, state and local government web resources and services.